sensor_id;sensor_type;location;lat;lon;timestamp;P1;durP1;ratioP1;P2;durP2;ratioP2
2624;SDS011;1322;53.256;10.386;2023-07-16T00:00:25;2.20;;;1.40;;
2624;SDS011;1322;53.256;10.386;2023-07-16T00:02:51;1.77;;;1.20;;
2624;SDS011;1322;53.256;10.386;2023-07-16T00:05:16;2.30;;;1.40;;
2624;SDS011;1322;53.256;10.386;2023-07-16T00:07:42;2.77;;;1.47;;
2624;SDS011;1322;53.256;10.386;2023-07-16T00:10:08;2.50;;;1.40;;
2624;SDS011;1322;53.256;10.386;2023-07-16T00:12:34;2.67;;;1.40;;
2624;SDS011;1322;53.256;10.386;2023-07-16T00:14:59;3.20;;;1.47;;
2624;SDS011;1322;53.256;10.386;2023-07-16T00:17:25;2.10;;;1.40;;
2624;SDS011;1322;53.256;10.386;2023-07-16T00:19:50;2.33;;;1.30;;
2624;SDS011;1322;53.256;10.386;2023-07-16T00:22:16;2.37;;;1.40;;
2624;SDS011;1322;53.256;10.386;2023-07-16T00:24:41;2.47;;;1.60;;
2624;SDS011;1322;53.256;10.386;2023-07-16T00:27:07;1.83;;;1.37;;
2624;SDS011;1322;53.256;10.386;2023-07-16T00:29:33;2.80;;;1.47;;
2624;SDS011;1322;53.256;10.386;2023-07-16T00:31:58;2.97;;;1.33;;
2624;SDS011;1322;53.256;10.386;2023-07-16T00:34:24;2.83;;;1.43;;
2624;SDS011;1322;53.256;10.386;2023-07-16T00:36:50;2.60;;;1.70;;
2624;SDS011;1322;53.256;10.386;2023-07-16T00:39:15;2.40;;;1.47;;
2624;SDS011;1322;53.256;10.386;2023-07-16T00:41:41;2.33;;;1.27;;
2624;SDS011;1322;53.256;10.386;2023-07-16T00:44:07;2.43;;;1.80;;
2624;SDS011;1322;53.256;10.386;2023-07-16T00:46:32;3.47;;;1.50;;
2624;SDS011;1322;53.256;10.386;2023-07-16T00:48:58;7.60;;;1.97;;
2624;SDS011;1322;53.256;10.386;2023-07-16T00:51:24;1.93;;;1.73;;
2624;SDS011;1322;53.256;10.386;2023-07-16T00:53:51;2.13;;;1.00;;
2624;SDS011;1322;53.256;10.386;2023-07-16T00:56:17;1.73;;;1.17;;
2624;SDS011;1322;53.256;10.386;2023-07-16T00:58:43;3.60;;;1.53;;
2624;SDS011;1322;53.256;10.386;2023-07-16T01:01:09;2.83;;;1.60;;
2624;SDS011;1322;53.256;10.386;2023-07-16T01:03:34;2.53;;;1.60;;
2624;SDS011;1322;53.256;10.386;2023-07-16T01:06:02;1.97;;;1.30;;
2624;SDS011;1322;53.256;10.386;2023-07-16T01:08:58;2.10;;;1.50;;
2624;SDS011;1322;53.256;10.386;2023-07-16T01:11:25;2.90;;;1.53;;
2624;SDS011;1322;53.256;10.386;2023-07-16T01:13:52;2.57;;;1.17;;
2624;SDS011;1322;53.256;10.386;2023-07-16T01:16:19;2.70;;;1.63;;
2624;SDS011;1322;53.256;10.386;2023-07-16T01:18:46;3.53;;;1.83;;
2624;SDS011;1322;53.256;10.386;2023-07-16T01:21:12;2.50;;;1.60;;
2624;SDS011;1322;53.256;10.386;2023-07-16T01:24:23;2.07;;;1.50;;
2624;SDS011;1322;53.256;10.386;2023-07-16T01:26:36;3.80;;;1.97;;
2624;SDS011;1322;53.256;10.386;2023-07-16T01:32:09;3.40;;;1.40;;
2624;SDS011;1322;53.256;10.386;2023-07-16T01:34:37;3.00;;;2.00;;
2624;SDS011;1322;53.256;10.386;2023-07-16T01:37:04;4.53;;;1.70;;
2624;SDS011;1322;53.256;10.386;2023-07-16T01:39:31;3.50;;;1.70;;
2624;SDS011;1322;53.256;10.386;2023-07-16T01:42:00;2.53;;;1.43;;
2624;SDS011;1322;53.256;10.386;2023-07-16T01:44:26;2.97;;;1.47;;
2624;SDS011;1322;53.256;10.386;2023-07-16T01:47:39;3.40;;;1.70;;
2624;SDS011;1322;53.256;10.386;2023-07-16T01:49:38;4.13;;;1.90;;
2624;SDS011;1322;53.256;10.386;2023-07-16T01:52:04;2.30;;;1.50;;
2624;SDS011;1322;53.256;10.386;2023-07-16T01:54:31;2.83;;;1.60;;
2624;SDS011;1322;53.256;10.386;2023-07-16T01:56:57;2.80;;;2.10;;
2624;SDS011;1322;53.256;10.386;2023-07-16T01:59:22;2.00;;;1.33;;
2624;SDS011;1322;53.256;10.386;2023-07-16T02:01:48;1.73;;;1.13;;
2624;SDS011;1322;53.256;10.386;2023-07-16T02:04:13;3.17;;;1.70;;
2624;SDS011;1322;53.256;10.386;2023-07-16T02:06:39;2.70;;;1.47;;
2624;SDS011;1322;53.256;10.386;2023-07-16T02:09:05;2.93;;;1.70;;
2624;SDS011;1322;53.256;10.386;2023-07-16T02:11:30;3.53;;;1.83;;
2624;SDS011;1322;53.256;10.386;2023-07-16T02:13:56;2.80;;;1.77;;
2624;SDS011;1322;53.256;10.386;2023-07-16T02:16:21;2.30;;;1.20;;
2624;SDS011;1322;53.256;10.386;2023-07-16T02:18:47;4.63;;;1.90;;
2624;SDS011;1322;53.256;10.386;2023-07-16T02:21:13;4.03;;;1.50;;
2624;SDS011;1322;53.256;10.386;2023-07-16T02:23:39;3.93;;;1.73;;
2624;SDS011;1322;53.256;10.386;2023-07-16T02:26:04;3.20;;;1.67;;
2624;SDS011;1322;53.256;10.386;2023-07-16T02:28:30;2.07;;;1.50;;
2624;SDS011;1322;53.256;10.386;2023-07-16T02:30:56;4.30;;;1.63;;
2624;SDS011;1322;53.256;10.386;2023-07-16T02:33:23;6.27;;;2.43;;
2624;SDS011;1322;53.256;10.386;2023-07-16T02:35:49;4.10;;;1.70;;
2624;SDS011;1322;53.256;10.386;2023-07-16T02:38:16;2.97;;;1.80;;
2624;SDS011;1322;53.256;10.386;2023-07-16T02:40:45;5.20;;;2.13;;
2624;SDS011;1322;53.256;10.386;2023-07-16T02:43:12;6.33;;;1.90;;
2624;SDS011;1322;53.256;10.386;2023-07-16T02:45:38;3.23;;;1.90;;
2624;SDS011;1322;53.256;10.386;2023-07-16T02:48:04;2.67;;;1.90;;
2624;SDS011;1322;53.256;10.386;2023-07-16T02:50:31;5.73;;;2.37;;
2624;SDS011;1322;53.256;10.386;2023-07-16T02:52:59;7.50;;;1.60;;
2624;SDS011;1322;53.256;10.386;2023-07-16T02:55:25;3.07;;;1.70;;
2624;SDS011;1322;53.256;10.386;2023-07-16T02:57:50;7.37;;;2.10;;
2624;SDS011;1322;53.256;10.386;2023-07-16T03:00:16;4.37;;;2.40;;
2624;SDS011;1322;53.256;10.386;2023-07-16T03:02:41;14.30;;;2.27;;
2624;SDS011;1322;53.256;10.386;2023-07-16T03:05:07;2.50;;;1.70;;
2624;SDS011;1322;53.256;10.386;2023-07-16T03:07:33;4.40;;;1.80;;
2624;SDS011;1322;53.256;10.386;2023-07-16T03:09:59;2.60;;;1.67;;
2624;SDS011;1322;53.256;10.386;2023-07-16T03:12:25;1.90;;;1.57;;
2624;SDS011;1322;53.256;10.386;2023-07-16T03:14:51;5.20;;;2.03;;
2624;SDS011;1322;53.256;10.386;2023-07-16T03:17:19;3.70;;;1.57;;
2624;SDS011;1322;53.256;10.386;2023-07-16T03:19:46;2.70;;;1.70;;
2624;SDS011;1322;53.256;10.386;2023-07-16T03:22:11;2.13;;;1.70;;
2624;SDS011;1322;53.256;10.386;2023-07-16T03:24:37;3.77;;;1.70;;
2624;SDS011;1322;53.256;10.386;2023-07-16T03:27:03;4.57;;;2.00;;
2624;SDS011;1322;53.256;10.386;2023-07-16T03:29:29;2.87;;;1.60;;
2624;SDS011;1322;53.256;10.386;2023-07-16T03:31:54;3.63;;;1.90;;
2624;SDS011;1322;53.256;10.386;2023-07-16T03:34:20;3.33;;;1.70;;
2624;SDS011;1322;53.256;10.386;2023-07-16T03:36:46;2.60;;;1.80;;
2624;SDS011;1322;53.256;10.386;2023-07-16T03:39:12;2.30;;;1.77;;
2624;SDS011;1322;53.256;10.386;2023-07-16T03:41:37;5.70;;;1.70;;
2624;SDS011;1322;53.256;10.386;2023-07-16T03:44:03;4.90;;;2.80;;
2624;SDS011;1322;53.256;10.386;2023-07-16T03:46:29;3.03;;;1.63;;
2624;SDS011;1322;53.256;10.386;2023-07-16T03:48:54;2.83;;;1.83;;
2624;SDS011;1322;53.256;10.386;2023-07-16T03:51:20;4.83;;;2.20;;
2624;SDS011;1322;53.256;10.386;2023-07-16T03:53:46;3.77;;;2.43;;
2624;SDS011;1322;53.256;10.386;2023-07-16T03:56:11;4.37;;;2.10;;
2624;SDS011;1322;53.256;10.386;2023-07-16T03:58:37;3.60;;;2.37;;
2624;SDS011;1322;53.256;10.386;2023-07-16T04:01:03;5.90;;;2.23;;
2624;SDS011;1322;53.256;10.386;2023-07-16T04:03:28;4.00;;;2.40;;
2624;SDS011;1322;53.256;10.386;2023-07-16T04:06:00;3.30;;;1.97;;
2624;SDS011;1322;53.256;10.386;2023-07-16T04:08:35;4.17;;;2.20;;
2624;SDS011;1322;53.256;10.386;2023-07-16T04:11:03;2.63;;;1.83;;
2624;SDS011;1322;53.256;10.386;2023-07-16T04:13:29;2.50;;;1.60;;
2624;SDS011;1322;53.256;10.386;2023-07-16T04:15:55;3.33;;;1.67;;
2624;SDS011;1322;53.256;10.386;2023-07-16T04:18:22;2.27;;;1.80;;
2624;SDS011;1322;53.256;10.386;2023-07-16T04:20:48;8.17;;;2.70;;
2624;SDS011;1322;53.256;10.386;2023-07-16T04:23:14;4.20;;;1.93;;
2624;SDS011;1322;53.256;10.386;2023-07-16T04:25:39;2.47;;;1.93;;
2624;SDS011;1322;53.256;10.386;2023-07-16T04:28:05;2.30;;;1.60;;
2624;SDS011;1322;53.256;10.386;2023-07-16T04:30:31;4.10;;;1.87;;
2624;SDS011;1322;53.256;10.386;2023-07-16T04:32:56;6.30;;;2.50;;
2624;SDS011;1322;53.256;10.386;2023-07-16T04:35:22;4.40;;;2.00;;
2624;SDS011;1322;53.256;10.386;2023-07-16T04:37:48;4.03;;;1.90;;
2624;SDS011;1322;53.256;10.386;2023-07-16T04:40:13;4.20;;;2.10;;
2624;SDS011;1322;53.256;10.386;2023-07-16T04:42:39;2.80;;;2.07;;
2624;SDS011;1322;53.256;10.386;2023-07-16T04:45:05;4.63;;;2.37;;
2624;SDS011;1322;53.256;10.386;2023-07-16T04:47:31;2.30;;;1.90;;
2624;SDS011;1322;53.256;10.386;2023-07-16T04:50:00;4.03;;;3.00;;
2624;SDS011;1322;53.256;10.386;2023-07-16T04:52:25;2.73;;;1.90;;
2624;SDS011;1322;53.256;10.386;2023-07-16T04:54:51;4.43;;;2.30;;
2624;SDS011;1322;53.256;10.386;2023-07-16T04:57:17;3.60;;;2.60;;
2624;SDS011;1322;53.256;10.386;2023-07-16T04:59:42;4.40;;;2.20;;
2624;SDS011;1322;53.256;10.386;2023-07-16T05:02:08;3.23;;;1.90;;
2624;SDS011;1322;53.256;10.386;2023-07-16T05:04:34;5.20;;;2.33;;
2624;SDS011;1322;53.256;10.386;2023-07-16T05:07:03;7.93;;;2.20;;
2624;SDS011;1322;53.256;10.386;2023-07-16T05:09:29;2.43;;;1.97;;
2624;SDS011;1322;53.256;10.386;2023-07-16T05:11:58;2.60;;;2.00;;
2624;SDS011;1322;53.256;10.386;2023-07-16T05:14:25;3.30;;;2.27;;
2624;SDS011;1322;53.256;10.386;2023-07-16T05:16:52;4.50;;;2.30;;
2624;SDS011;1322;53.256;10.386;2023-07-16T05:19:18;3.73;;;2.00;;
2624;SDS011;1322;53.256;10.386;2023-07-16T05:21:44;2.20;;;1.77;;
2624;SDS011;1322;53.256;10.386;2023-07-16T05:24:09;3.50;;;2.00;;
2624;SDS011;1322;53.256;10.386;2023-07-16T05:26:35;6.10;;;2.03;;
2624;SDS011;1322;53.256;10.386;2023-07-16T05:29:00;3.00;;;2.20;;
2624;SDS011;1322;53.256;10.386;2023-07-16T05:31:27;4.60;;;1.87;;
2624;SDS011;1322;53.256;10.386;2023-07-16T05:33:52;3.07;;;2.10;;
2624;SDS011;1322;53.256;10.386;2023-07-16T05:36:18;2.97;;;2.27;;
2624;SDS011;1322;53.256;10.386;2023-07-16T05:38:43;4.10;;;2.57;;
2624;SDS011;1322;53.256;10.386;2023-07-16T05:41:09;5.70;;;2.50;;
2624;SDS011;1322;53.256;10.386;2023-07-16T05:43:35;3.87;;;2.00;;
2624;SDS011;1322;53.256;10.386;2023-07-16T05:46:00;4.40;;;2.57;;
2624;SDS011;1322;53.256;10.386;2023-07-16T05:48:26;5.53;;;2.43;;
2624;SDS011;1322;53.256;10.386;2023-07-16T05:50:52;4.13;;;2.53;;
2624;SDS011;1322;53.256;10.386;2023-07-16T05:53:17;4.20;;;2.13;;
2624;SDS011;1322;53.256;10.386;2023-07-16T05:55:43;3.73;;;2.00;;
2624;SDS011;1322;53.256;10.386;2023-07-16T05:58:08;3.93;;;2.30;;
2624;SDS011;1322;53.256;10.386;2023-07-16T06:00:34;6.00;;;2.47;;
2624;SDS011;1322;53.256;10.386;2023-07-16T06:03:02;2.93;;;2.00;;
2624;SDS011;1322;53.256;10.386;2023-07-16T06:05:28;5.43;;;2.20;;
2624;SDS011;1322;53.256;10.386;2023-07-16T06:07:57;4.60;;;2.57;;
2624;SDS011;1322;53.256;10.386;2023-07-16T06:10:23;4.43;;;2.17;;
2624;SDS011;1322;53.256;10.386;2023-07-16T06:12:49;4.13;;;2.40;;
2624;SDS011;1322;53.256;10.386;2023-07-16T06:15:14;3.30;;;2.33;;
2624;SDS011;1322;53.256;10.386;2023-07-16T06:17:40;3.73;;;1.90;;
2624;SDS011;1322;53.256;10.386;2023-07-16T06:20:06;5.63;;;2.23;;
2624;SDS011;1322;53.256;10.386;2023-07-16T06:22:32;4.30;;;2.40;;
2624;SDS011;1322;53.256;10.386;2023-07-16T06:24:58;3.07;;;1.77;;
2624;SDS011;1322;53.256;10.386;2023-07-16T06:27:24;3.80;;;1.97;;
2624;SDS011;1322;53.256;10.386;2023-07-16T06:29:50;3.50;;;2.13;;
2624;SDS011;1322;53.256;10.386;2023-07-16T06:32:16;4.23;;;2.40;;
2624;SDS011;1322;53.256;10.386;2023-07-16T06:34:41;3.53;;;1.97;;
2624;SDS011;1322;53.256;10.386;2023-07-16T06:37:07;3.53;;;2.43;;
2624;SDS011;1322;53.256;10.386;2023-07-16T06:39:33;4.97;;;2.23;;
2624;SDS011;1322;53.256;10.386;2023-07-16T06:41:58;5.43;;;2.20;;
2624;SDS011;1322;53.256;10.386;2023-07-16T06:44:24;2.80;;;2.23;;
2624;SDS011;1322;53.256;10.386;2023-07-16T06:46:50;4.60;;;2.53;;
2624;SDS011;1322;53.256;10.386;2023-07-16T06:49:15;6.90;;;2.20;;
2624;SDS011;1322;53.256;10.386;2023-07-16T06:51:41;3.00;;;1.73;;
2624;SDS011;1322;53.256;10.386;2023-07-16T06:54:06;3.80;;;2.13;;
2624;SDS011;1322;53.256;10.386;2023-07-16T06:56:33;5.03;;;1.90;;
2624;SDS011;1322;53.256;10.386;2023-07-16T06:58:58;10.65;;;6.53;;
2624;SDS011;1322;53.256;10.386;2023-07-16T07:01:24;3.97;;;2.77;;
2624;SDS011;1322;53.256;10.386;2023-07-16T07:03:52;4.50;;;2.30;;
2624;SDS011;1322;53.256;10.386;2023-07-16T07:06:18;5.50;;;3.00;;
2624;SDS011;1322;53.256;10.386;2023-07-16T07:08:44;3.90;;;2.10;;
2624;SDS011;1322;53.256;10.386;2023-07-16T07:11:09;4.87;;;2.43;;
2624;SDS011;1322;53.256;10.386;2023-07-16T07:13:35;5.80;;;2.63;;
2624;SDS011;1322;53.256;10.386;2023-07-16T07:16:01;3.40;;;2.20;;
2624;SDS011;1322;53.256;10.386;2023-07-16T07:18:26;5.20;;;2.27;;
2624;SDS011;1322;53.256;10.386;2023-07-16T07:20:52;2.53;;;2.10;;
2624;SDS011;1322;53.256;10.386;2023-07-16T07:23:18;6.63;;;2.27;;
2624;SDS011;1322;53.256;10.386;2023-07-16T07:25:47;5.00;;;2.33;;
2624;SDS011;1322;53.256;10.386;2023-07-16T07:28:16;9.00;;;2.20;;
2624;SDS011;1322;53.256;10.386;2023-07-16T07:30:43;3.37;;;2.27;;
2624;SDS011;1322;53.256;10.386;2023-07-16T07:33:09;4.70;;;2.10;;
2624;SDS011;1322;53.256;10.386;2023-07-16T07:35:34;4.37;;;1.90;;
2624;SDS011;1322;53.256;10.386;2023-07-16T07:38:00;6.57;;;2.43;;
2624;SDS011;1322;53.256;10.386;2023-07-16T07:40:26;3.47;;;2.10;;
2624;SDS011;1322;53.256;10.386;2023-07-16T07:42:51;6.13;;;2.87;;
2624;SDS011;1322;53.256;10.386;2023-07-16T07:45:17;7.90;;;2.60;;
2624;SDS011;1322;53.256;10.386;2023-07-16T07:47:43;3.17;;;2.23;;
2624;SDS011;1322;53.256;10.386;2023-07-16T07:50:08;7.67;;;2.97;;
2624;SDS011;1322;53.256;10.386;2023-07-16T07:52:34;4.73;;;2.57;;
2624;SDS011;1322;53.256;10.386;2023-07-16T07:55:00;4.83;;;2.57;;
2624;SDS011;1322;53.256;10.386;2023-07-16T07:57:26;4.20;;;2.43;;
2624;SDS011;1322;53.256;10.386;2023-07-16T07:59:51;3.90;;;2.37;;
2624;SDS011;1322;53.256;10.386;2023-07-16T08:02:21;3.60;;;2.00;;
2624;SDS011;1322;53.256;10.386;2023-07-16T08:04:49;5.30;;;2.40;;
2624;SDS011;1322;53.256;10.386;2023-07-16T08:07:18;4.73;;;2.33;;
2624;SDS011;1322;53.256;10.386;2023-07-16T08:09:44;8.07;;;2.53;;
2624;SDS011;1322;53.256;10.386;2023-07-16T08:12:11;6.23;;;3.40;;
2624;SDS011;1322;53.256;10.386;2023-07-16T08:14:36;4.07;;;2.43;;
2624;SDS011;1322;53.256;10.386;2023-07-16T08:17:02;5.50;;;2.47;;
2624;SDS011;1322;53.256;10.386;2023-07-16T08:19:28;4.90;;;2.60;;
2624;SDS011;1322;53.256;10.386;2023-07-16T08:21:53;5.80;;;2.40;;
2624;SDS011;1322;53.256;10.386;2023-07-16T08:24:19;3.00;;;1.90;;
2624;SDS011;1322;53.256;10.386;2023-07-16T08:26:45;7.60;;;2.57;;
2624;SDS011;1322;53.256;10.386;2023-07-16T08:29:10;10.20;;;2.60;;
2624;SDS011;1322;53.256;10.386;2023-07-16T08:31:36;2.90;;;2.20;;
2624;SDS011;1322;53.256;10.386;2023-07-16T08:34:02;7.60;;;3.10;;
2624;SDS011;1322;53.256;10.386;2023-07-16T08:36:27;7.03;;;3.57;;
2624;SDS011;1322;53.256;10.386;2023-07-16T08:38:53;4.73;;;2.87;;
2624;SDS011;1322;53.256;10.386;2023-07-16T08:41:18;5.57;;;2.33;;
2624;SDS011;1322;53.256;10.386;2023-07-16T08:43:45;4.67;;;2.60;;
2624;SDS011;1322;53.256;10.386;2023-07-16T08:46:12;3.23;;;2.60;;
2624;SDS011;1322;53.256;10.386;2023-07-16T08:48:38;3.77;;;2.60;;
2624;SDS011;1322;53.256;10.386;2023-07-16T08:51:05;6.40;;;2.63;;
2624;SDS011;1322;53.256;10.386;2023-07-16T08:53:32;4.50;;;3.03;;
2624;SDS011;1322;53.256;10.386;2023-07-16T08:55:58;3.70;;;2.30;;
2624;SDS011;1322;53.256;10.386;2023-07-16T08:58:24;4.33;;;2.50;;
2624;SDS011;1322;53.256;10.386;2023-07-16T09:00:50;3.63;;;2.83;;
2624;SDS011;1322;53.256;10.386;2023-07-16T09:03:16;13.00;;;8.90;;
2624;SDS011;1322;53.256;10.386;2023-07-16T09:05:43;10.23;;;3.30;;
2624;SDS011;1322;53.256;10.386;2023-07-16T09:08:09;7.17;;;2.93;;
2624;SDS011;1322;53.256;10.386;2023-07-16T09:10:36;6.40;;;3.30;;
2624;SDS011;1322;53.256;10.386;2023-07-16T09:13:01;11.83;;;3.43;;
2624;SDS011;1322;53.256;10.386;2023-07-16T09:15:28;3.03;;;2.20;;
2624;SDS011;1322;53.256;10.386;2023-07-16T09:17:54;5.30;;;4.20;;
2624;SDS011;1322;53.256;10.386;2023-07-16T09:20:20;3.33;;;2.30;;
2624;SDS011;1322;53.256;10.386;2023-07-16T09:22:48;5.80;;;2.83;;
2624;SDS011;1322;53.256;10.386;2023-07-16T09:25:14;3.90;;;3.00;;
2624;SDS011;1322;53.256;10.386;2023-07-16T09:27:40;5.10;;;2.67;;
2624;SDS011;1322;53.256;10.386;2023-07-16T09:30:06;5.40;;;2.50;;
2624;SDS011;1322;53.256;10.386;2023-07-16T09:32:39;6.20;;;3.00;;
2624;SDS011;1322;53.256;10.386;2023-07-16T09:35:11;4.60;;;2.93;;
2624;SDS011;1322;53.256;10.386;2023-07-16T09:37:39;4.80;;;3.00;;
2624;SDS011;1322;53.256;10.386;2023-07-16T09:40:08;4.77;;;3.30;;
2624;SDS011;1322;53.256;10.386;2023-07-16T09:42:36;9.40;;;6.60;;
2624;SDS011;1322;53.256;10.386;2023-07-16T09:45:05;5.17;;;3.20;;
2624;SDS011;1322;53.256;10.386;2023-07-16T09:47:32;5.83;;;3.20;;
2624;SDS011;1322;53.256;10.386;2023-07-16T09:49:58;7.07;;;4.60;;
2624;SDS011;1322;53.256;10.386;2023-07-16T09:52:23;5.23;;;3.00;;
2624;SDS011;1322;53.256;10.386;2023-07-16T09:54:52;4.93;;;3.43;;
2624;SDS011;1322;53.256;10.386;2023-07-16T09:57:21;6.53;;;3.00;;
2624;SDS011;1322;53.256;10.386;2023-07-16T09:59:50;4.63;;;3.30;;
2624;SDS011;1322;53.256;10.386;2023-07-16T10:02:17;5.30;;;3.20;;
2624;SDS011;1322;53.256;10.386;2023-07-16T10:04:43;4.40;;;3.60;;
2624;SDS011;1322;53.256;10.386;2023-07-16T10:07:19;6.13;;;4.07;;
2624;SDS011;1322;53.256;10.386;2023-07-16T10:12:21;10.73;;;3.47;;
2624;SDS011;1322;53.256;10.386;2023-07-16T10:14:52;4.57;;;3.40;;
2624;SDS011;1322;53.256;10.386;2023-07-16T10:17:25;5.60;;;3.10;;
2624;SDS011;1322;53.256;10.386;2023-07-16T10:25:24;6.23;;;3.97;;
2624;SDS011;1322;53.256;10.386;2023-07-16T10:27:52;5.88;;;3.63;;
2624;SDS011;1322;53.256;10.386;2023-07-16T10:30:18;5.60;;;3.63;;
2624;SDS011;1322;53.256;10.386;2023-07-16T10:32:44;8.93;;;4.50;;
2624;SDS011;1322;53.256;10.386;2023-07-16T10:35:10;6.97;;;3.72;;
2624;SDS011;1322;53.256;10.386;2023-07-16T10:37:37;7.65;;;4.00;;
2624;SDS011;1322;53.256;10.386;2023-07-16T10:40:04;5.00;;;3.70;;
2624;SDS011;1322;53.256;10.386;2023-07-16T10:42:31;5.00;;;3.50;;
2624;SDS011;1322;53.256;10.386;2023-07-16T10:44:58;6.27;;;4.13;;
2624;SDS011;1322;53.256;10.386;2023-07-16T10:47:29;5.07;;;3.90;;
2624;SDS011;1322;53.256;10.386;2023-07-16T10:49:57;6.50;;;3.60;;
2624;SDS011;1322;53.256;10.386;2023-07-16T10:52:23;7.60;;;4.50;;
2624;SDS011;1322;53.256;10.386;2023-07-16T10:54:52;7.40;;;3.67;;
2624;SDS011;1322;53.256;10.386;2023-07-16T10:57:22;8.63;;;4.25;;
2624;SDS011;1322;53.256;10.386;2023-07-16T10:59:50;7.93;;;3.30;;
2624;SDS011;1322;53.256;10.386;2023-07-16T11:02:17;5.63;;;3.70;;
2624;SDS011;1322;53.256;10.386;2023-07-16T11:04:43;7.77;;;3.50;;
2624;SDS011;1322;53.256;10.386;2023-07-16T11:07:11;6.70;;;3.97;;
2624;SDS011;1322;53.256;10.386;2023-07-16T11:09:55;8.83;;;3.43;;
2624;SDS011;1322;53.256;10.386;2023-07-16T11:12:21;5.50;;;3.90;;
2624;SDS011;1322;53.256;10.386;2023-07-16T11:14:49;6.78;;;4.10;;
2624;SDS011;1322;53.256;10.386;2023-07-16T11:17:16;5.75;;;3.95;;
2624;SDS011;1322;53.256;10.386;2023-07-16T11:19:48;6.50;;;3.80;;
2624;SDS011;1322;53.256;10.386;2023-07-16T11:22:15;4.68;;;3.95;;
2624;SDS011;1322;53.256;10.386;2023-07-16T11:24:45;5.88;;;3.53;;
2624;SDS011;1322;53.256;10.386;2023-07-16T11:27:13;7.00;;;3.47;;
2624;SDS011;1322;53.256;10.386;2023-07-16T11:29:53;6.38;;;3.95;;
2624;SDS011;1322;53.256;10.386;2023-07-16T11:32:30;7.32;;;3.75;;
2624;SDS011;1322;53.256;10.386;2023-07-16T11:35:03;11.40;;;3.92;;
2624;SDS011;1322;53.256;10.386;2023-07-16T11:37:33;7.00;;;3.70;;
2624;SDS011;1322;53.256;10.386;2023-07-16T11:40:01;4.60;;;3.40;;
2624;SDS011;1322;53.256;10.386;2023-07-16T11:42:34;8.13;;;5.22;;
2624;SDS011;1322;53.256;10.386;2023-07-16T11:45:02;4.55;;;3.00;;
2624;SDS011;1322;53.256;10.386;2023-07-16T11:47:28;6.80;;;2.90;;
2624;SDS011;1322;53.256;10.386;2023-07-16T11:49:54;9.45;;;4.00;;
2624;SDS011;1322;53.256;10.386;2023-07-16T11:52:30;5.80;;;3.73;;
2624;SDS011;1322;53.256;10.386;2023-07-16T11:54:57;4.40;;;2.85;;
2624;SDS011;1322;53.256;10.386;2023-07-16T11:57:28;6.55;;;3.63;;
2624;SDS011;1322;53.256;10.386;2023-07-16T11:59:54;4.45;;;3.33;;
2624;SDS011;1322;53.256;10.386;2023-07-16T12:02:20;4.00;;;3.28;;
2624;SDS011;1322;53.256;10.386;2023-07-16T12:04:46;5.82;;;3.47;;
2624;SDS011;1322;53.256;10.386;2023-07-16T12:07:12;8.20;;;3.47;;
2624;SDS011;1322;53.256;10.386;2023-07-16T12:09:38;6.07;;;2.78;;
2624;SDS011;1322;53.256;10.386;2023-07-16T12:12:04;4.57;;;3.47;;
2624;SDS011;1322;53.256;10.386;2023-07-16T12:14:30;4.55;;;3.10;;
2624;SDS011;1322;53.256;10.386;2023-07-16T12:16:56;4.20;;;3.15;;
2624;SDS011;1322;53.256;10.386;2023-07-16T12:19:22;4.45;;;3.20;;
2624;SDS011;1322;53.256;10.386;2023-07-16T12:21:48;3.53;;;2.53;;
2624;SDS011;1322;53.256;10.386;2023-07-16T12:24:13;4.78;;;3.08;;
2624;SDS011;1322;53.256;10.386;2023-07-16T12:26:39;7.22;;;3.85;;
2624;SDS011;1322;53.256;10.386;2023-07-16T12:29:05;4.45;;;2.80;;
2624;SDS011;1322;53.256;10.386;2023-07-16T12:31:31;5.05;;;2.80;;
2624;SDS011;1322;53.256;10.386;2023-07-16T12:33:57;7.47;;;3.80;;
2624;SDS011;1322;53.256;10.386;2023-07-16T12:36:23;4.03;;;2.90;;
2624;SDS011;1322;53.256;10.386;2023-07-16T12:38:49;4.68;;;3.00;;
2624;SDS011;1322;53.256;10.386;2023-07-16T12:41:14;5.38;;;3.15;;
2624;SDS011;1322;53.256;10.386;2023-07-16T12:43:41;8.38;;;3.35;;
2624;SDS011;1322;53.256;10.386;2023-07-16T12:46:06;6.35;;;3.35;;
2624;SDS011;1322;53.256;10.386;2023-07-16T12:48:33;4.30;;;3.33;;
2624;SDS011;1322;53.256;10.386;2023-07-16T12:50:58;7.82;;;3.40;;
2624;SDS011;1322;53.256;10.386;2023-07-16T12:53:24;3.50;;;2.85;;
2624;SDS011;1322;53.256;10.386;2023-07-16T12:55:51;5.90;;;2.90;;
2624;SDS011;1322;53.256;10.386;2023-07-16T12:58:17;5.32;;;2.85;;
2624;SDS011;1322;53.256;10.386;2023-07-16T13:00:42;4.20;;;2.72;;
2624;SDS011;1322;53.256;10.386;2023-07-16T13:03:08;6.53;;;2.85;;
2624;SDS011;1322;53.256;10.386;2023-07-16T13:05:37;7.05;;;2.75;;
2624;SDS011;1322;53.256;10.386;2023-07-16T13:08:03;4.55;;;3.00;;
2624;SDS011;1322;53.256;10.386;2023-07-16T13:10:29;5.28;;;3.08;;
2624;SDS011;1322;53.256;10.386;2023-07-16T13:12:54;4.47;;;3.00;;
2624;SDS011;1322;53.256;10.386;2023-07-16T13:15:20;6.15;;;2.95;;
2624;SDS011;1322;53.256;10.386;2023-07-16T13:17:46;4.57;;;4.07;;
2624;SDS011;1322;53.256;10.386;2023-07-16T13:20:13;5.07;;;2.72;;
2624;SDS011;1322;53.256;10.386;2023-07-16T13:22:38;7.45;;;3.33;;
2624;SDS011;1322;53.256;10.386;2023-07-16T13:25:04;5.18;;;2.95;;
2624;SDS011;1322;53.256;10.386;2023-07-16T13:27:30;4.07;;;2.95;;
2624;SDS011;1322;53.256;10.386;2023-07-16T13:29:56;4.47;;;3.10;;
2624;SDS011;1322;53.256;10.386;2023-07-16T14:21:25;5.10;;;2.83;;
2624;SDS011;1322;53.256;10.386;2023-07-16T14:23:50;6.80;;;3.50;;
2624;SDS011;1322;53.256;10.386;2023-07-16T14:26:16;5.07;;;2.92;;
2624;SDS011;1322;53.256;10.386;2023-07-16T14:28:42;6.25;;;3.55;;
2624;SDS011;1322;53.256;10.386;2023-07-16T14:31:07;7.82;;;3.50;;
2624;SDS011;1322;53.256;10.386;2023-07-16T14:33:33;7.47;;;3.30;;
2624;SDS011;1322;53.256;10.386;2023-07-16T14:35:58;4.18;;;3.03;;
2624;SDS011;1322;53.256;10.386;2023-07-16T14:38:24;6.05;;;3.22;;
2624;SDS011;1322;53.256;10.386;2023-07-16T14:40:49;7.60;;;3.20;;
2624;SDS011;1322;53.256;10.386;2023-07-16T14:43:16;4.20;;;3.03;;
2624;SDS011;1322;53.256;10.386;2023-07-16T14:45:43;3.75;;;2.67;;
2624;SDS011;1322;53.256;10.386;2023-07-16T14:48:08;5.93;;;3.65;;
2624;SDS011;1322;53.256;10.386;2023-07-16T14:50:34;6.70;;;3.30;;
2624;SDS011;1322;53.256;10.386;2023-07-16T14:53:00;6.63;;;3.20;;
2624;SDS011;1322;53.256;10.386;2023-07-16T14:55:25;4.13;;;3.00;;
2624;SDS011;1322;53.256;10.386;2023-07-16T14:57:51;5.75;;;3.22;;
2624;SDS011;1322;53.256;10.386;2023-07-16T15:00:17;6.32;;;3.33;;
2624;SDS011;1322;53.256;10.386;2023-07-16T15:02:42;3.53;;;2.85;;
2624;SDS011;1322;53.256;10.386;2023-07-16T15:05:08;7.15;;;3.42;;
2624;SDS011;1322;53.256;10.386;2023-07-16T15:07:34;7.40;;;3.45;;
2624;SDS011;1322;53.256;10.386;2023-07-16T15:10:01;5.00;;;2.95;;
2624;SDS011;1322;53.256;10.386;2023-07-16T15:12:27;4.28;;;3.05;;
2624;SDS011;1322;53.256;10.386;2023-07-16T15:14:53;4.15;;;3.65;;
2624;SDS011;1322;53.256;10.386;2023-07-16T15:17:19;3.80;;;3.10;;
2624;SDS011;1322;53.256;10.386;2023-07-16T15:19:44;6.32;;;3.45;;
2624;SDS011;1322;53.256;10.386;2023-07-16T15:22:10;5.63;;;3.38;;
2624;SDS011;1322;53.256;10.386;2023-07-16T15:24:36;7.07;;;3.60;;
2624;SDS011;1322;53.256;10.386;2023-07-16T15:27:02;6.30;;;3.08;;
2624;SDS011;1322;53.256;10.386;2023-07-16T15:29:29;5.43;;;3.17;;
2624;SDS011;1322;53.256;10.386;2023-07-16T15:31:55;6.15;;;3.10;;
2624;SDS011;1322;53.256;10.386;2023-07-16T15:34:21;5.05;;;2.85;;
2624;SDS011;1322;53.256;10.386;2023-07-16T15:36:47;4.28;;;2.90;;
2624;SDS011;1322;53.256;10.386;2023-07-16T15:39:12;8.68;;;3.60;;
2624;SDS011;1322;53.256;10.386;2023-07-16T15:41:38;7.28;;;3.95;;
2624;SDS011;1322;53.256;10.386;2023-07-16T15:44:03;4.80;;;3.10;;
2624;SDS011;1322;53.256;10.386;2023-07-16T15:46:29;8.25;;;3.85;;
2624;SDS011;1322;53.256;10.386;2023-07-16T15:48:56;5.95;;;3.13;;
2624;SDS011;1322;53.256;10.386;2023-07-16T15:51:21;6.40;;;3.53;;
2624;SDS011;1322;53.256;10.386;2023-07-16T15:53:50;5.07;;;3.35;;
2624;SDS011;1322;53.256;10.386;2023-07-16T15:56:18;6.43;;;3.05;;